sensor_id;sensor_type;location;lat;lon;timestamp;pressure;altitude;pressure_sealevel;temperature;humidity
41688;BME280;27371;42.686;23.362;2023-04-01T00:01:18;164549.19;;;9.02;67.22
41688;BME280;27371;42.686;23.362;2023-04-01T00:03:44;164550.50;;;9.03;67.55
41688;BME280;27371;42.686;23.362;2023-04-01T00:06:13;164558.53;;;9.06;66.93
41688;BME280;27371;42.686;23.362;2023-04-01T00:08:39;164573.22;;;9.11;66.77
41688;BME280;27371;42.686;23.362;2023-04-01T00:11:04;164575.91;;;9.12;66.47
41688;BME280;27371;42.686;23.362;2023-04-01T00:13:30;164570.56;;;9.10;66.41
41688;BME280;27371;42.686;23.362;2023-04-01T00:15:56;164611.97;;;9.26;65.83
41688;BME280;27371;42.686;23.362;2023-04-01T00:18:22;164603.91;;;9.23;65.85
41688;BME280;27371;42.686;23.362;2023-04-01T00:20:49;164625.28;;;9.31;65.92
41688;BME280;27371;42.686;23.362;2023-04-01T00:23:16;164629.28;;;9.33;65.51
41688;BME280;27371;42.686;23.362;2023-04-01T00:25:41;164643.97;;;9.39;65.35
41688;BME280;27371;42.686;23.362;2023-04-01T00:28:07;164674.69;;;9.50;64.66
41688;BME280;27371;42.686;23.362;2023-04-01T00:30:33;164688.03;;;9.55;64.85
41688;BME280;27371;42.686;23.362;2023-04-01T00:33:00;164686.72;;;9.55;65.21
41688;BME280;27371;42.686;23.362;2023-04-01T00:35:26;164684.06;;;9.54;65.53
41688;BME280;27371;42.686;23.362;2023-04-01T00:37:51;164684.06;;;9.54;65.26
41688;BME280;27371;42.686;23.362;2023-04-01T00:40:30;164689.38;;;9.56;65.33
41688;BME280;27371;42.686;23.362;2023-04-01T00:42:56;164696.06;;;9.58;64.52
41688;BME280;27371;42.686;23.362;2023-04-01T00:45:34;164676.00;;;9.51;65.27
41688;BME280;27371;42.686;23.362;2023-04-01T00:48:22;164661.31;;;9.45;65.76
41688;BME280;27371;42.686;23.362;2023-04-01T00:51:09;164672.03;;;9.49;66.30
41688;BME280;27371;42.686;23.362;2023-04-01T00:53:41;164618.59;;;9.29;67.22
41688;BME280;27371;42.686;23.362;2023-04-01T00:56:11;164654.63;;;9.43;67.08
41688;BME280;27371;42.686;23.362;2023-04-01T00:58:43;164664.03;;;9.46;67.05
41688;BME280;27371;42.686;23.362;2023-04-01T01:01:09;164664.03;;;9.46;66.97
41688;BME280;27371;42.686;23.362;2023-04-01T01:03:35;164680.03;;;9.52;66.95
41688;BME280;27371;42.686;23.362;2023-04-01T01:08:50;164713.44;;;9.65;66.78
41688;BME280;27371;42.686;23.362;2023-04-01T01:11:29;164714.78;;;9.66;66.69
41688;BME280;27371;42.686;23.362;2023-04-01T01:14:39;164716.09;;;9.66;66.91
41688;BME280;27371;42.686;23.362;2023-04-01T01:25:29;164716.09;;;9.66;66.56
41688;BME280;27371;42.686;23.362;2023-04-01T01:36:23;164724.09;;;9.69;65.37
41688;BME280;27371;42.686;23.362;2023-04-01T01:38:52;164721.44;;;9.68;64.88
41688;BME280;27371;42.686;23.362;2023-04-01T01:41:18;164709.41;;;9.64;64.98
41688;BME280;27371;42.686;23.362;2023-04-01T01:43:48;164689.38;;;9.56;65.06
41688;BME280;27371;42.686;23.362;2023-04-01T01:46:17;164684.06;;;9.54;65.26
41688;BME280;27371;42.686;23.362;2023-04-01T01:48:45;164637.31;;;9.36;64.72
41688;BME280;27371;42.686;23.362;2023-04-01T01:51:12;164698.75;;;9.59;64.46
41688;BME280;27371;42.686;23.362;2023-04-01T01:53:38;164714.78;;;9.66;63.85
41688;BME280;27371;42.686;23.362;2023-04-01T01:56:04;164720.13;;;9.68;63.83
41688;BME280;27371;42.686;23.362;2023-04-01T01:58:58;164762.81;;;9.84;63.45
41688;BME280;27371;42.686;23.362;2023-04-01T02:01:27;164778.88;;;9.90;62.92
41688;BME280;27371;42.686;23.362;2023-04-01T02:03:53;164794.91;;;9.96;62.50
41688;BME280;27371;42.686;23.362;2023-04-01T02:06:22;164793.56;;;9.96;61.92
41688;BME280;27371;42.686;23.362;2023-04-01T02:08:55;164855.00;;;10.19;61.65
41688;BME280;27371;42.686;23.362;2023-04-01T02:11:27;164856.34;;;10.20;61.62
41688;BME280;27371;42.686;23.362;2023-04-01T02:14:03;164877.75;;;10.28;61.74
41688;BME280;27371;42.686;23.362;2023-04-01T02:16:41;164872.41;;;10.26;61.85
41688;BME280;27371;42.686;23.362;2023-04-01T02:19:11;164864.41;;;10.23;61.43
41688;BME280;27371;42.686;23.362;2023-04-01T02:21:39;164883.13;;;10.30;60.64
41688;BME280;27371;42.686;23.362;2023-04-01T02:24:10;164892.47;;;10.34;60.16
41688;BME280;27371;42.686;23.362;2023-04-01T02:26:37;164919.19;;;10.44;59.86
41688;BME280;27371;42.686;23.362;2023-04-01T02:29:05;164937.91;;;10.51;59.47
41688;BME280;27371;42.686;23.362;2023-04-01T02:31:32;164949.91;;;10.56;57.99
41688;BME280;27371;42.686;23.362;2023-04-01T02:33:58;164844.34;;;10.15;58.42
41688;BME280;27371;42.686;23.362;2023-04-01T02:36:24;164786.91;;;9.93;60.47
41688;BME280;27371;42.686;23.362;2023-04-01T02:38:51;164762.81;;;9.84;62.02
41688;BME280;27371;42.686;23.362;2023-04-01T02:41:17;164725.44;;;9.70;63.14
41688;BME280;27371;42.686;23.362;2023-04-01T02:43:43;164716.09;;;9.66;63.75
41688;BME280;27371;42.686;23.362;2023-04-01T02:46:08;164666.69;;;9.47;64.22
41688;BME280;27371;42.686;23.362;2023-04-01T02:48:34;164717.44;;;9.67;65.00
41688;BME280;27371;42.686;23.362;2023-04-01T02:50:59;164761.50;;;9.84;64.63
41688;BME280;27371;42.686;23.362;2023-04-01T02:53:25;164788.22;;;9.94;64.48
41688;BME280;27371;42.686;23.362;2023-04-01T02:55:50;164778.88;;;9.90;64.30
41688;BME280;27371;42.686;23.362;2023-04-01T02:58:17;164800.25;;;9.98;64.71
41688;BME280;27371;42.686;23.362;2023-04-01T03:00:43;164817.59;;;10.05;64.57
41688;BME280;27371;42.686;23.362;2023-04-01T03:03:09;164830.97;;;10.10;64.07
41688;BME280;27371;42.686;23.362;2023-04-01T03:05:34;164825.63;;;10.08;64.10
41688;BME280;27371;42.686;23.362;2023-04-01T03:08:00;164822.97;;;10.07;64.42
41688;BME280;27371;42.686;23.362;2023-04-01T03:10:26;164820.25;;;10.06;64.29
41688;BME280;27371;42.686;23.362;2023-04-01T03:12:52;164802.91;;;9.99;63.87
41688;BME280;27371;42.686;23.362;2023-04-01T03:15:17;164816.28;;;10.04;63.71
41688;BME280;27371;42.686;23.362;2023-04-01T03:17:43;164809.59;;;10.02;63.61
41688;BME280;27371;42.686;23.362;2023-04-01T03:20:09;164826.94;;;10.09;63.25
41688;BME280;27371;42.686;23.362;2023-04-01T03:22:36;164832.28;;;10.11;63.19
41688;BME280;27371;42.686;23.362;2023-04-01T03:25:03;164809.59;;;10.02;63.32
41688;BME280;27371;42.686;23.362;2023-04-01T03:27:29;164749.50;;;9.79;63.46
41688;BME280;27371;42.686;23.362;2023-04-01T03:29:54;164666.69;;;9.47;64.01
41688;BME280;27371;42.686;23.362;2023-04-01T03:32:20;164601.25;;;9.22;65.30
41688;BME280;27371;42.686;23.362;2023-04-01T03:34:46;164583.91;;;9.16;66.67
41688;BME280;27371;42.686;23.362;2023-04-01T03:37:11;164563.88;;;9.08;67.75
41688;BME280;27371;42.686;23.362;2023-04-01T03:39:37;164566.53;;;9.09;68.68
41688;BME280;27371;42.686;23.362;2023-04-01T03:42:02;164567.84;;;9.09;68.87
41688;BME280;27371;42.686;23.362;2023-04-01T03:44:31;164594.56;;;9.20;69.30
41688;BME280;27371;42.686;23.362;2023-04-01T03:46:57;164603.91;;;9.23;69.03
41688;BME280;27371;42.686;23.362;2023-04-01T03:49:22;164654.63;;;9.43;68.61
41688;BME280;27371;42.686;23.362;2023-04-01T03:51:48;164670.72;;;9.49;68.51
41688;BME280;27371;42.686;23.362;2023-04-01T03:54:13;164662.69;;;9.46;68.33
41688;BME280;27371;42.686;23.362;2023-04-01T03:56:39;164665.34;;;9.47;68.11
41688;BME280;27371;42.686;23.362;2023-04-01T03:59:06;164658.66;;;9.44;68.38
41688;BME280;27371;42.686;23.362;2023-04-01T04:01:32;164666.69;;;9.47;67.70
41688;BME280;27371;42.686;23.362;2023-04-01T04:03:58;164660.00;;;9.45;67.40
41688;BME280;27371;42.686;23.362;2023-04-01T04:06:24;164653.31;;;9.42;67.35
41688;BME280;27371;42.686;23.362;2023-04-01T04:08:50;164635.97;;;9.35;67.47
41688;BME280;27371;42.686;23.362;2023-04-01T04:11:16;164646.63;;;9.40;67.16
41688;BME280;27371;42.686;23.362;2023-04-01T04:13:42;164631.94;;;9.34;67.26
41688;BME280;27371;42.686;23.362;2023-04-01T04:16:08;164643.97;;;9.39;67.34
41688;BME280;27371;42.686;23.362;2023-04-01T04:18:35;164638.63;;;9.36;67.38
41688;BME280;27371;42.686;23.362;2023-04-01T04:21:01;164638.63;;;9.36;67.07
41688;BME280;27371;42.686;23.362;2023-04-01T04:23:26;164629.28;;;9.33;67.10
41688;BME280;27371;42.686;23.362;2023-04-01T04:26:07;164615.94;;;9.28;67.23
41688;BME280;27371;42.686;23.362;2023-04-01T04:28:34;164606.59;;;9.24;67.77
41688;BME280;27371;42.686;23.362;2023-04-01T04:31:00;164574.53;;;9.12;67.95
41688;BME280;27371;42.686;23.362;2023-04-01T04:33:26;164597.22;;;9.21;68.47
41688;BME280;27371;42.686;23.362;2023-04-01T04:35:55;164597.22;;;9.21;68.52
41688;BME280;27371;42.686;23.362;2023-04-01T04:38:20;164593.25;;;9.19;68.38
41688;BME280;27371;42.686;23.362;2023-04-01T04:40:46;164590.59;;;9.18;68.40
41688;BME280;27371;42.686;23.362;2023-04-01T04:43:13;164575.91;;;9.12;68.30
41688;BME280;27371;42.686;23.362;2023-04-01T04:45:39;164589.22;;;9.18;67.63
41688;BME280;27371;42.686;23.362;2023-04-01T04:48:07;164579.88;;;9.14;67.42
41688;BME280;27371;42.686;23.362;2023-04-01T04:50:33;164558.53;;;9.06;67.70
41688;BME280;27371;42.686;23.362;2023-04-01T04:52:58;164554.53;;;9.04;67.22
41688;BME280;27371;42.686;23.362;2023-04-01T04:55:24;164573.22;;;9.11;66.95
41688;BME280;27371;42.686;23.362;2023-04-01T04:57:49;164542.50;;;9.00;66.59
41688;BME280;27371;42.686;23.362;2023-04-01T05:00:15;164595.91;;;9.20;66.53
41688;BME280;27371;42.686;23.362;2023-04-01T05:02:40;164622.63;;;9.30;66.11
41688;BME280;27371;42.686;23.362;2023-04-01T05:05:06;164643.97;;;9.39;66.08
41688;BME280;27371;42.686;23.362;2023-04-01T05:07:33;164681.38;;;9.53;65.66
41688;BME280;27371;42.686;23.362;2023-04-01T05:09:58;164684.06;;;9.54;65.05
41688;BME280;27371;42.686;23.362;2023-04-01T05:12:24;164717.44;;;9.67;64.98
41688;BME280;27371;42.686;23.362;2023-04-01T05:14:50;164748.13;;;9.78;64.53
41688;BME280;27371;42.686;23.362;2023-04-01T05:17:15;164752.16;;;9.80;63.93
41688;BME280;27371;42.686;23.362;2023-04-01T05:19:41;164788.22;;;9.94;63.50
41688;BME280;27371;42.686;23.362;2023-04-01T05:22:06;164789.56;;;9.94;63.03
41688;BME280;27371;42.686;23.362;2023-04-01T05:24:32;164782.88;;;9.92;61.99
41688;BME280;27371;42.686;23.362;2023-04-01T05:26:58;164718.75;;;9.67;61.73
41688;BME280;27371;42.686;23.362;2023-04-01T05:29:25;164614.59;;;9.27;62.93
41688;BME280;27371;42.686;23.362;2023-04-01T05:31:51;164567.84;;;9.09;64.62
41688;BME280;27371;42.686;23.362;2023-04-01T05:34:16;164602.56;;;9.23;64.97
41688;BME280;27371;42.686;23.362;2023-04-01T05:36:43;164681.38;;;9.53;64.70
41688;BME280;27371;42.686;23.362;2023-04-01T05:39:09;164702.72;;;9.61;63.71
41688;BME280;27371;42.686;23.362;2023-04-01T05:41:35;164774.84;;;9.89;62.65
41688;BME280;27371;42.686;23.362;2023-04-01T05:44:00;164773.53;;;9.88;62.41
41688;BME280;27371;42.686;23.362;2023-04-01T05:46:26;164835.00;;;10.12;62.11
41688;BME280;27371;42.686;23.362;2023-04-01T05:48:52;164876.44;;;10.28;61.62
41688;BME280;27371;42.686;23.362;2023-04-01T05:51:17;164900.53;;;10.37;61.48
41688;BME280;27371;42.686;23.362;2023-04-01T05:54:01;164927.22;;;10.47;60.92
41688;BME280;27371;42.686;23.362;2023-04-01T05:56:27;164952.63;;;10.57;60.10
41688;BME280;27371;42.686;23.362;2023-04-01T05:58:53;164991.34;;;10.72;58.75
41688;BME280;27371;42.686;23.362;2023-04-01T06:01:19;165063.53;;;10.99;59.16
41688;BME280;27371;42.686;23.362;2023-04-01T06:03:45;165150.41;;;11.32;58.25
41688;BME280;27371;42.686;23.362;2023-04-01T06:06:15;165270.78;;;11.78;57.40
41688;BME280;27371;42.686;23.362;2023-04-01T06:08:42;165427.31;;;12.38;55.28
41688;BME280;27371;42.686;23.362;2023-04-01T06:11:13;165520.97;;;12.74;53.47
41688;BME280;27371;42.686;23.362;2023-04-01T06:21:55;165403.22;;;12.29;53.83
41688;BME280;27371;42.686;23.362;2023-04-01T06:27:29;165420.63;;;12.36;54.19
41688;BME280;27371;42.686;23.362;2023-04-01T06:46:31;165217.31;;;11.58;57.27
41688;BME280;27371;42.686;23.362;2023-04-01T06:49:21;165134.38;;;11.26;59.43
41688;BME280;27371;42.686;23.362;2023-04-01T06:54:34;165098.28;;;11.12;60.64
41688;BME280;27371;42.686;23.362;2023-04-01T06:57:23;165190.53;;;11.48;59.82
41688;BME280;27371;42.686;23.362;2023-04-01T06:59:50;165234.66;;;11.65;59.20
41688;BME280;27371;42.686;23.362;2023-04-01T07:02:38;165262.75;;;11.75;58.98
41688;BME280;27371;42.686;23.362;2023-04-01T07:05:05;165316.28;;;11.96;58.49
41688;BME280;27371;42.686;23.362;2023-04-01T07:07:45;165333.69;;;12.02;58.29
41688;BME280;27371;42.686;23.362;2023-04-01T07:10:19;165352.38;;;12.10;58.75
41688;BME280;27371;42.686;23.362;2023-04-01T07:12:52;165391.22;;;12.24;58.26
41688;BME280;27371;42.686;23.362;2023-04-01T07:15:23;165352.38;;;12.10;58.19
41688;BME280;27371;42.686;23.362;2023-04-01T07:18:03;165412.63;;;12.33;58.47
41688;BME280;27371;42.686;23.362;2023-04-01T07:20:31;165463.44;;;12.52;58.19
41688;BME280;27371;42.686;23.362;2023-04-01T07:22:59;165519.66;;;12.74;57.92
41688;BME280;27371;42.686;23.362;2023-04-01T07:25:30;165561.09;;;12.89;57.36
41688;BME280;27371;42.686;23.362;2023-04-01T07:28:10;165613.31;;;13.09;57.31
41688;BME280;27371;42.686;23.362;2023-04-01T07:33:33;165693.66;;;13.40;56.71
41688;BME280;27371;42.686;23.362;2023-04-01T07:45:01;165842.25;;;13.97;55.02
41688;BME280;27371;42.686;23.362;2023-04-01T07:47:37;165873.03;;;14.09;54.65
41688;BME280;27371;42.686;23.362;2023-04-01T07:55:12;165923.97;;;14.28;52.20
41688;BME280;27371;42.686;23.362;2023-04-01T08:01:11;165704.34;;;13.44;54.94
41688;BME280;27371;42.686;23.362;2023-04-01T08:06:41;165666.88;;;13.30;55.10
41688;BME280;27371;42.686;23.362;2023-04-01T08:17:05;165873.03;;;14.09;52.57
41688;BME280;27371;42.686;23.362;2023-04-01T08:22:21;165895.84;;;14.17;52.84
41688;BME280;27371;42.686;23.362;2023-04-01T08:24:49;165917.25;;;14.25;52.51
41688;BME280;27371;42.686;23.362;2023-04-01T08:27:26;165988.25;;;14.53;52.19
41688;BME280;27371;42.686;23.362;2023-04-01T08:32:47;166087.41;;;14.90;51.37
41688;BME280;27371;42.686;23.362;2023-04-01T08:35:23;166120.91;;;15.03;50.81
41688;BME280;27371;42.686;23.362;2023-04-01T08:37:50;166159.75;;;15.18;50.40
41688;BME280;27371;42.686;23.362;2023-04-01T08:40:36;166185.22;;;15.28;49.01
41688;BME280;27371;42.686;23.362;2023-04-01T08:52:40;166269.63;;;15.60;47.70
41688;BME280;27371;42.686;23.362;2023-04-01T08:55:27;166292.50;;;15.69;47.53
41688;BME280;27371;42.686;23.362;2023-04-01T08:58:22;166281.69;;;15.65;46.94
41688;BME280;27371;42.686;23.362;2023-04-01T09:01:17;166301.88;;;15.72;46.69
41688;BME280;27371;42.686;23.362;2023-04-01T09:15:47;166272.31;;;15.61;45.50
41688;BME280;27371;42.686;23.362;2023-04-01T09:26:30;166512.31;;;16.53;39.92
41688;BME280;27371;42.686;23.362;2023-04-01T09:35:23;166590.16;;;16.82;40.08
41688;BME280;27371;42.686;23.362;2023-04-01T09:54:23;166453.34;;;16.30;41.46
41688;BME280;27371;42.686;23.362;2023-04-01T10:20:16;166228.13;;;15.44;46.27
41688;BME280;27371;42.686;23.362;2023-04-01T10:25:52;166281.69;;;15.65;44.87
41688;BME280;27371;42.686;23.362;2023-04-01T10:36:43;166324.63;;;15.81;45.04
41688;BME280;27371;42.686;23.362;2023-04-01T10:56:40;166305.84;;;15.74;45.96
41688;BME280;27371;42.686;23.362;2023-04-01T11:02:01;166307.25;;;15.74;46.04
41688;BME280;27371;42.686;23.362;2023-04-01T11:16:25;166370.19;;;15.98;44.93
41688;BME280;27371;42.686;23.362;2023-04-01T11:26:57;166185.22;;;15.28;45.47
41688;BME280;27371;42.686;23.362;2023-04-01T11:29:36;166075.38;;;14.86;46.08
41688;BME280;27371;42.686;23.362;2023-04-01T11:32:14;166070.00;;;14.84;47.26
41688;BME280;27371;42.686;23.362;2023-04-01T11:46:12;166202.63;;;15.34;51.05
41688;BME280;27371;42.686;23.362;2023-04-01T11:54:28;165973.47;;;14.47;60.24
41688;BME280;27371;42.686;23.362;2023-04-01T12:02:46;165582.50;;;12.98;71.16
41688;BME280;27371;42.686;23.362;2023-04-01T12:13:41;165290.88;;;11.86;76.90
41688;BME280;27371;42.686;23.362;2023-04-01T12:19:12;165194.53;;;11.49;80.24
41688;BME280;27371;42.686;23.362;2023-04-01T12:21:49;165207.91;;;11.54;81.31
41688;BME280;27371;42.686;23.362;2023-04-01T12:24:33;165234.66;;;11.65;83.18
41688;BME280;27371;42.686;23.362;2023-04-01T12:32:29;165396.53;;;12.26;83.36
41688;BME280;27371;42.686;23.362;2023-04-01T12:35:10;165431.31;;;12.40;82.28
41688;BME280;27371;42.686;23.362;2023-04-01T12:40:28;165392.53;;;12.25;80.40
41688;BME280;27371;42.686;23.362;2023-04-01T12:46:07;165340.38;;;12.05;79.97
41688;BME280;27371;42.686;23.362;2023-04-01T12:51:08;165310.97;;;11.94;80.61
41688;BME280;27371;42.686;23.362;2023-04-01T12:56:36;165298.91;;;11.89;80.26
41688;BME280;27371;42.686;23.362;2023-04-01T12:59:31;165293.56;;;11.87;80.49
41688;BME280;27371;42.686;23.362;2023-04-01T13:02:24;165273.44;;;11.79;80.82
41688;BME280;27371;42.686;23.362;2023-04-01T13:10:25;165107.63;;;11.16;80.92
41688;BME280;27371;42.686;23.362;2023-04-01T13:15:47;165054.19;;;10.96;83.57
41688;BME280;27371;42.686;23.362;2023-04-01T13:21:15;165118.34;;;11.20;83.40
41688;BME280;27371;42.686;23.362;2023-04-01T13:24:12;165170.47;;;11.40;83.79
41688;BME280;27371;42.686;23.362;2023-04-01T13:27:17;165171.81;;;11.41;84.79
41688;BME280;27371;42.686;23.362;2023-04-01T13:32:38;165260.09;;;11.74;85.28
41688;BME280;27371;42.686;23.362;2023-04-01T13:35:35;165328.31;;;12.00;84.13
41688;BME280;27371;42.686;23.362;2023-04-01T13:43:37;165472.81;;;12.56;79.27
41688;BME280;27371;42.686;23.362;2023-04-01T13:55:02;165304.28;;;11.91;80.13
41688;BME280;27371;42.686;23.362;2023-04-01T14:00:17;165170.47;;;11.40;77.97
41688;BME280;27371;42.686;23.362;2023-04-01T14:05:53;165016.78;;;10.81;81.17
41688;BME280;27371;42.686;23.362;2023-04-01T14:08:42;164995.38;;;10.73;81.75
41688;BME280;27371;42.686;23.362;2023-04-01T14:14:33;165002.06;;;10.76;82.21
41688;BME280;27371;42.686;23.362;2023-04-01T14:22:40;165024.78;;;10.84;80.92
41688;BME280;27371;42.686;23.362;2023-04-01T14:25:32;165106.31;;;11.15;81.05
41688;BME280;27371;42.686;23.362;2023-04-01T14:50:31;165273.44;;;11.79;78.55
41688;BME280;27371;42.686;23.362;2023-04-01T14:53:28;165340.38;;;12.05;77.99
41688;BME280;27371;42.686;23.362;2023-04-01T14:56:01;165368.47;;;12.16;77.63
41688;BME280;27371;42.686;23.362;2023-04-01T14:59:49;165431.31;;;12.40;76.19
41688;BME280;27371;42.686;23.362;2023-04-01T15:02:32;165446.03;;;12.45;74.68
41688;BME280;27371;42.686;23.362;2023-04-01T15:13:18;165466.09;;;12.53;71.86
41688;BME280;27371;42.686;23.362;2023-04-01T15:18:39;165434.03;;;12.41;72.29
41688;BME280;27371;42.686;23.362;2023-04-01T15:31:44;165170.47;;;11.40;73.48
41688;BME280;27371;42.686;23.362;2023-04-01T15:34:23;165145.09;;;11.30;74.95
41688;BME280;27371;42.686;23.362;2023-04-01T15:37:04;165147.75;;;11.31;75.90
41688;BME280;27371;42.686;23.362;2023-04-01T15:40:11;165159.81;;;11.36;77.04
41688;BME280;27371;42.686;23.362;2023-04-01T15:45:50;165249.38;;;11.70;76.13
41688;BME280;27371;42.686;23.362;2023-04-01T16:00:02;165143.72;;;11.30;69.36
41688;BME280;27371;42.686;23.362;2023-04-01T16:02:48;165028.75;;;10.86;71.29
41688;BME280;27371;42.686;23.362;2023-04-01T16:11:12;164776.19;;;9.89;79.20
41688;BME280;27371;42.686;23.362;2023-04-01T16:16:46;164652.00;;;9.42;83.61
41688;BME280;27371;42.686;23.362;2023-04-01T16:22:09;164557.19;;;9.05;86.00
41688;BME280;27371;42.686;23.362;2023-04-01T16:27:24;164486.44;;;8.78;87.72
41688;BME280;27371;42.686;23.362;2023-04-01T16:29:58;164454.41;;;8.66;88.48
41688;BME280;27371;42.686;23.362;2023-04-01T16:32:46;164421.03;;;8.53;88.86
41688;BME280;27371;42.686;23.362;2023-04-01T16:35:23;164457.06;;;8.67;88.60
41688;BME280;27371;42.686;23.362;2023-04-01T16:37:53;164462.41;;;8.69;88.19
41688;BME280;27371;42.686;23.362;2023-04-01T16:40:40;164467.72;;;8.71;88.35
41688;BME280;27371;42.686;23.362;2023-04-01T16:43:19;164469.09;;;8.72;88.05
41688;BME280;27371;42.686;23.362;2023-04-01T16:45:53;164481.06;;;8.76;88.10
41688;BME280;27371;42.686;23.362;2023-04-01T16:48:28;164482.47;;;8.77;87.81
41688;BME280;27371;42.686;23.362;2023-04-01T16:51:02;164478.44;;;8.75;86.70
41688;BME280;27371;42.686;23.362;2023-04-01T16:56:47;164430.38;;;8.57;85.08
41688;BME280;27371;42.686;23.362;2023-04-01T16:59:24;164422.38;;;8.54;84.97
41688;BME280;27371;42.686;23.362;2023-04-01T17:01:55;164433.06;;;8.58;85.11
41688;BME280;27371;42.686;23.362;2023-04-01T17:20:39;164286.19;;;8.01;82.94
41688;BME280;27371;42.686;23.362;2023-04-01T17:28:45;164264.84;;;7.93;83.17
41688;BME280;27371;42.686;23.362;2023-04-01T17:33:58;164263.53;;;7.93;84.07
41688;BME280;27371;42.686;23.362;2023-04-01T17:39:25;164224.84;;;7.78;83.84
41688;BME280;27371;42.686;23.362;2023-04-01T17:44:51;164288.91;;;8.02;83.77
41688;BME280;27371;42.686;23.362;2023-04-01T17:58:28;164267.53;;;7.94;83.80
41688;BME280;27371;42.686;23.362;2023-04-01T18:04:23;164247.53;;;7.87;83.68
41688;BME280;27371;42.686;23.362;2023-04-01T18:07:04;164259.53;;;7.91;83.90
41688;BME280;27371;42.686;23.362;2023-04-01T18:10:23;164259.53;;;7.91;83.94
41688;BME280;27371;42.686;23.362;2023-04-01T18:18:03;164144.81;;;7.47;82.79
41688;BME280;27371;42.686;23.362;2023-04-01T18:21:17;164135.44;;;7.44;83.03
41688;BME280;27371;42.686;23.362;2023-04-01T18:26:24;164131.47;;;7.42;83.49
41688;BME280;27371;42.686;23.362;2023-04-01T18:29:02;164139.47;;;7.45;83.45
41688;BME280;27371;42.686;23.362;2023-04-01T18:31:45;164151.50;;;7.50;83.32
41688;BME280;27371;42.686;23.362;2023-04-01T18:34:19;164150.13;;;7.49;83.10
41688;BME280;27371;42.686;23.362;2023-04-01T18:36:56;164188.84;;;7.64;82.64
41688;BME280;27371;42.686;23.362;2023-04-01T18:39:42;164203.50;;;7.70;82.41
41688;BME280;27371;42.686;23.362;2023-04-01T18:42:38;164203.50;;;7.70;82.27
41688;BME280;27371;42.686;23.362;2023-04-01T18:55:49;164220.81;;;7.76;81.28
41688;BME280;27371;42.686;23.362;2023-04-01T19:00:49;164182.16;;;7.62;81.92
41688;BME280;27371;42.686;23.362;2023-04-01T19:03:43;164192.81;;;7.66;82.16
41688;BME280;27371;42.686;23.362;2023-04-01T19:06:22;164194.13;;;7.66;81.60
41688;BME280;27371;42.686;23.362;2023-04-01T19:08:48;164206.16;;;7.71;82.06
41688;BME280;27371;42.686;23.362;2023-04-01T19:16:54;164220.81;;;7.76;79.18
41688;BME280;27371;42.686;23.362;2023-04-01T19:22:34;164254.19;;;7.89;79.81
41688;BME280;27371;42.686;23.362;2023-04-01T19:27:53;164276.88;;;7.98;79.89
41688;BME280;27371;42.686;23.362;2023-04-01T19:30:40;164302.19;;;8.08;79.06
41688;BME280;27371;42.686;23.362;2023-04-01T19:33:45;164326.25;;;8.17;77.65
41688;BME280;27371;42.686;23.362;2023-04-01T19:36:29;164322.22;;;8.15;77.32
41688;BME280;27371;42.686;23.362;2023-04-01T19:45:17;164362.28;;;8.31;75.01
41688;BME280;27371;42.686;23.362;2023-04-01T19:53:25;164360.94;;;8.30;73.44
41688;BME280;27371;42.686;23.362;2023-04-01T19:56:14;164372.91;;;8.35;73.37
41688;BME280;27371;42.686;23.362;2023-04-01T19:58:48;164376.94;;;8.36;73.29
41688;BME280;27371;42.686;23.362;2023-04-01T20:01:22;164367.63;;;8.33;72.96
41688;BME280;27371;42.686;23.362;2023-04-01T20:03:58;164351.56;;;8.26;72.91
41688;BME280;27371;42.686;23.362;2023-04-01T20:15:36;164212.81;;;7.73;74.30
41688;BME280;27371;42.686;23.362;2023-04-01T20:18:12;164187.50;;;7.64;75.05
41688;BME280;27371;42.686;23.362;2023-04-01T20:20:40;164180.84;;;7.61;76.36
41688;BME280;27371;42.686;23.362;2023-04-01T20:26:13;164214.16;;;7.74;75.42
41688;BME280;27371;42.686;23.362;2023-04-01T20:31:34;164220.81;;;7.76;76.33
41688;BME280;27371;42.686;23.362;2023-04-01T20:36:55;164286.19;;;8.01;75.38
41688;BME280;27371;42.686;23.362;2023-04-01T20:39:52;164311.56;;;8.11;73.84
41688;BME280;27371;42.686;23.362;2023-04-01T20:45:33;164354.28;;;8.28;71.15
41688;BME280;27371;42.686;23.362;2023-04-01T20:48:58;164328.88;;;8.18;69.53
41688;BME280;27371;42.686;23.362;2023-04-01T20:51:15;164290.22;;;8.03;69.78
41688;BME280;27371;42.686;23.362;2023-04-01T20:56:47;164262.19;;;7.92;70.32
41688;BME280;27371;42.686;23.362;2023-04-01T21:07:28;164294.19;;;8.04;70.50
41688;BME280;27371;42.686;23.362;2023-04-01T21:12:53;164342.25;;;8.23;69.63
41688;BME280;27371;42.686;23.362;2023-04-01T21:15:57;164339.59;;;8.22;69.29
41688;BME280;27371;42.686;23.362;2023-04-01T21:18:33;164370.28;;;8.34;69.36
41688;BME280;27371;42.686;23.362;2023-04-01T21:21:29;164389.03;;;8.41;68.99
41688;BME280;27371;42.686;23.362;2023-04-01T21:38:12;164441.06;;;8.61;67.16
41688;BME280;27371;42.686;23.362;2023-04-01T21:46:24;164389.03;;;8.41;66.32
41688;BME280;27371;42.686;23.362;2023-04-01T22:09:31;164366.25;;;8.32;67.89
41688;BME280;27371;42.686;23.362;2023-04-01T22:12:09;164338.22;;;8.21;67.79
41688;BME280;27371;42.686;23.362;2023-04-01T22:28:10;164328.88;;;8.18;67.93
41688;BME280;27371;42.686;23.362;2023-04-01T22:30:50;164310.25;;;8.11;67.74
41688;BME280;27371;42.686;23.362;2023-04-01T22:42:00;164276.88;;;7.98;67.39
41688;BME280;27371;42.686;23.362;2023-04-01T22:44:51;164211.50;;;7.73;67.42
41688;BME280;27371;42.686;23.362;2023-04-01T22:53:29;164136.78;;;7.44;70.02